sensor_id;sensor_type;location;lat;lon;timestamp;P1;durP1;ratioP1;P2;durP2;ratioP2
19521;SDS011;9905;52.126;5.596;2022-08-04T00:02:17;4.70;;;3.83;;
19521;SDS011;9905;52.126;5.596;2022-08-04T00:04:52;3.95;;;3.65;;
19521;SDS011;9905;52.126;5.596;2022-08-04T00:07:24;3.92;;;3.63;;
19521;SDS011;9905;52.126;5.596;2022-08-04T00:09:59;4.53;;;4.13;;
19521;SDS011;9905;52.126;5.596;2022-08-04T00:12:30;4.90;;;4.03;;
19521;SDS011;9905;52.126;5.596;2022-08-04T00:14:59;4.50;;;4.20;;
19521;SDS011;9905;52.126;5.596;2022-08-04T00:17:30;5.68;;;3.55;;
19521;SDS011;9905;52.126;5.596;2022-08-04T00:19:59;4.72;;;4.20;;
19521;SDS011;9905;52.126;5.596;2022-08-04T00:22:28;4.85;;;3.90;;
19521;SDS011;9905;52.126;5.596;2022-08-04T00:24:56;6.32;;;4.15;;
19521;SDS011;9905;52.126;5.596;2022-08-04T00:27:24;4.90;;;4.45;;
19521;SDS011;9905;52.126;5.596;2022-08-04T00:29:54;4.15;;;3.85;;
19521;SDS011;9905;52.126;5.596;2022-08-04T00:32:21;4.68;;;4.30;;
19521;SDS011;9905;52.126;5.596;2022-08-04T00:34:48;4.30;;;3.92;;
19521;SDS011;9905;52.126;5.596;2022-08-04T00:37:16;4.53;;;3.78;;
19521;SDS011;9905;52.126;5.596;2022-08-04T00:39:46;5.18;;;4.25;;
19521;SDS011;9905;52.126;5.596;2022-08-04T00:42:24;4.57;;;3.90;;
19521;SDS011;9905;52.126;5.596;2022-08-04T00:45:03;5.22;;;4.07;;
19521;SDS011;9905;52.126;5.596;2022-08-04T00:47:46;4.68;;;4.28;;
19521;SDS011;9905;52.126;5.596;2022-08-04T00:50:23;4.10;;;3.75;;
19521;SDS011;9905;52.126;5.596;2022-08-04T00:53:00;4.75;;;4.43;;
19521;SDS011;9905;52.126;5.596;2022-08-04T00:55:53;4.47;;;4.07;;
19521;SDS011;9905;52.126;5.596;2022-08-04T00:58:38;4.65;;;4.05;;
19521;SDS011;9905;52.126;5.596;2022-08-04T01:01:11;6.28;;;4.18;;
19521;SDS011;9905;52.126;5.596;2022-08-04T01:04:01;4.97;;;4.32;;
19521;SDS011;9905;52.126;5.596;2022-08-04T01:06:36;4.72;;;4.32;;
19521;SDS011;9905;52.126;5.596;2022-08-04T01:09:12;5.20;;;4.60;;
19521;SDS011;9905;52.126;5.596;2022-08-04T01:11:56;5.05;;;4.65;;
19521;SDS011;9905;52.126;5.596;2022-08-04T01:14:57;5.30;;;4.85;;
19521;SDS011;9905;52.126;5.596;2022-08-04T01:17:32;4.15;;;3.83;;
19521;SDS011;9905;52.126;5.596;2022-08-04T01:20:07;4.90;;;4.50;;
19521;SDS011;9905;52.126;5.596;2022-08-04T01:22:46;6.10;;;4.55;;
19521;SDS011;9905;52.126;5.596;2022-08-04T01:25:35;4.88;;;4.57;;
19521;SDS011;9905;52.126;5.596;2022-08-04T01:28:23;9.48;;;5.18;;
19521;SDS011;9905;52.126;5.596;2022-08-04T01:30:57;5.35;;;4.85;;
19521;SDS011;9905;52.126;5.596;2022-08-04T01:33:45;5.47;;;5.07;;
19521;SDS011;9905;52.126;5.596;2022-08-04T01:36:14;5.00;;;4.53;;
19521;SDS011;9905;52.126;5.596;2022-08-04T01:38:41;5.78;;;4.47;;
19521;SDS011;9905;52.126;5.596;2022-08-04T01:41:09;4.68;;;4.28;;
19521;SDS011;9905;52.126;5.596;2022-08-04T01:43:40;4.82;;;4.30;;
19521;SDS011;9905;52.126;5.596;2022-08-04T01:46:10;4.72;;;4.32;;
19521;SDS011;9905;52.126;5.596;2022-08-04T01:48:39;4.90;;;4.55;;
19521;SDS011;9905;52.126;5.596;2022-08-04T01:51:09;5.30;;;4.32;;
19521;SDS011;9905;52.126;5.596;2022-08-04T01:53:36;7.55;;;4.72;;
19521;SDS011;9905;52.126;5.596;2022-08-04T01:56:05;4.65;;;4.35;;
19521;SDS011;9905;52.126;5.596;2022-08-04T01:58:33;7.35;;;4.72;;
19521;SDS011;9905;52.126;5.596;2022-08-04T02:01:02;4.40;;;4.07;;
19521;SDS011;9905;52.126;5.596;2022-08-04T02:03:31;3.90;;;3.70;;
19521;SDS011;9905;52.126;5.596;2022-08-04T02:06:03;7.60;;;4.53;;
19521;SDS011;9905;52.126;5.596;2022-08-04T02:08:40;4.85;;;4.35;;
19521;SDS011;9905;52.126;5.596;2022-08-04T02:11:17;4.65;;;4.35;;
19521;SDS011;9905;52.126;5.596;2022-08-04T02:13:48;4.70;;;4.30;;
19521;SDS011;9905;52.126;5.596;2022-08-04T02:16:21;5.20;;;4.38;;
19521;SDS011;9905;52.126;5.596;2022-08-04T02:18:59;4.80;;;4.45;;
19521;SDS011;9905;52.126;5.596;2022-08-04T02:21:30;5.20;;;4.43;;
19521;SDS011;9905;52.126;5.596;2022-08-04T02:23:58;5.10;;;4.57;;
19521;SDS011;9905;52.126;5.596;2022-08-04T02:26:27;5.20;;;4.90;;
19521;SDS011;9905;52.126;5.596;2022-08-04T02:28:55;5.88;;;4.53;;
19521;SDS011;9905;52.126;5.596;2022-08-04T02:31:30;7.63;;;5.40;;
19521;SDS011;9905;52.126;5.596;2022-08-04T02:34:05;5.10;;;4.60;;
19521;SDS011;9905;52.126;5.596;2022-08-04T02:36:35;4.63;;;4.30;;
19521;SDS011;9905;52.126;5.596;2022-08-04T02:39:04;6.00;;;5.28;;
19521;SDS011;9905;52.126;5.596;2022-08-04T02:41:32;6.97;;;4.88;;
19521;SDS011;9905;52.126;5.596;2022-08-04T02:44:00;5.40;;;4.45;;
19521;SDS011;9905;52.126;5.596;2022-08-04T02:46:29;5.22;;;4.90;;
19521;SDS011;9905;52.126;5.596;2022-08-04T02:48:56;5.45;;;5.03;;
19521;SDS011;9905;52.126;5.596;2022-08-04T02:51:26;5.32;;;4.43;;
19521;SDS011;9905;52.126;5.596;2022-08-04T02:53:55;5.00;;;4.60;;
19521;SDS011;9905;52.126;5.596;2022-08-04T02:56:23;6.53;;;5.40;;
19521;SDS011;9905;52.126;5.596;2022-08-04T02:58:55;6.20;;;5.65;;
19521;SDS011;9905;52.126;5.596;2022-08-04T03:01:24;5.80;;;4.55;;
19521;SDS011;9905;52.126;5.596;2022-08-04T03:03:53;5.38;;;4.97;;
19521;SDS011;9905;52.126;5.596;2022-08-04T03:06:47;5.65;;;5.10;;
19521;SDS011;9905;52.126;5.596;2022-08-04T03:09:58;7.45;;;5.05;;
19521;SDS011;9905;52.126;5.596;2022-08-04T03:12:48;4.90;;;4.60;;
19521;SDS011;9905;52.126;5.596;2022-08-04T03:19:06;5.32;;;4.82;;
19521;SDS011;9905;52.126;5.596;2022-08-04T03:25:04;5.22;;;4.80;;
19521;SDS011;9905;52.126;5.596;2022-08-04T03:27:58;5.32;;;4.93;;
19521;SDS011;9905;52.126;5.596;2022-08-04T03:31:03;5.57;;;5.05;;
19521;SDS011;9905;52.126;5.596;2022-08-04T03:34:03;5.15;;;4.82;;
19521;SDS011;9905;52.126;5.596;2022-08-04T03:39:58;5.97;;;5.38;;
19521;SDS011;9905;52.126;5.596;2022-08-04T03:42:53;6.15;;;5.60;;
19521;SDS011;9905;52.126;5.596;2022-08-04T03:48:53;6.07;;;5.68;;
19521;SDS011;9905;52.126;5.596;2022-08-04T03:51:35;5.57;;;5.15;;
19521;SDS011;9905;52.126;5.596;2022-08-04T03:54:32;7.80;;;5.07;;
19521;SDS011;9905;52.126;5.596;2022-08-04T04:00:18;5.25;;;4.85;;
19521;SDS011;9905;52.126;5.596;2022-08-04T04:03:03;5.57;;;5.03;;
19521;SDS011;9905;52.126;5.596;2022-08-04T04:09:02;5.30;;;4.88;;
19521;SDS011;9905;52.126;5.596;2022-08-04T04:18:00;5.70;;;5.30;;
19521;SDS011;9905;52.126;5.596;2022-08-04T04:21:13;5.38;;;4.82;;
19521;SDS011;9905;52.126;5.596;2022-08-04T04:24:00;5.20;;;4.85;;
19521;SDS011;9905;52.126;5.596;2022-08-04T04:26:38;5.78;;;5.25;;
19521;SDS011;9905;52.126;5.596;2022-08-04T04:29:19;5.72;;;5.20;;
19521;SDS011;9905;52.126;5.596;2022-08-04T04:32:16;5.20;;;4.85;;
19521;SDS011;9905;52.126;5.596;2022-08-04T04:34:52;5.80;;;5.20;;
19521;SDS011;9905;52.126;5.596;2022-08-04T04:37:42;5.90;;;5.40;;
19521;SDS011;9905;52.126;5.596;2022-08-04T04:40:31;5.50;;;5.10;;
19521;SDS011;9905;52.126;5.596;2022-08-04T04:43:10;7.75;;;5.50;;
19521;SDS011;9905;52.126;5.596;2022-08-04T04:45:48;7.15;;;5.35;;
19521;SDS011;9905;52.126;5.596;2022-08-04T04:48:25;5.82;;;5.38;;
19521;SDS011;9905;52.126;5.596;2022-08-04T04:51:03;6.05;;;5.47;;
19521;SDS011;9905;52.126;5.596;2022-08-04T04:53:37;6.22;;;5.80;;
19521;SDS011;9905;52.126;5.596;2022-08-04T04:56:13;9.45;;;6.45;;
19521;SDS011;9905;52.126;5.596;2022-08-04T04:58:44;5.78;;;5.30;;
19521;SDS011;9905;52.126;5.596;2022-08-04T05:04:19;6.28;;;5.78;;
19521;SDS011;9905;52.126;5.596;2022-08-04T05:07:05;6.68;;;5.63;;
19521;SDS011;9905;52.126;5.596;2022-08-04T05:09:45;6.40;;;5.80;;
19521;SDS011;9905;52.126;5.596;2022-08-04T05:15:16;6.85;;;5.90;;
19521;SDS011;9905;52.126;5.596;2022-08-04T05:17:46;6.65;;;5.82;;
19521;SDS011;9905;52.126;5.596;2022-08-04T05:20:19;8.00;;;6.68;;
19521;SDS011;9905;52.126;5.596;2022-08-04T05:22:50;8.82;;;6.65;;
19521;SDS011;9905;52.126;5.596;2022-08-04T05:25:21;12.52;;;7.22;;
19521;SDS011;9905;52.126;5.596;2022-08-04T05:27:53;13.52;;;6.88;;
19521;SDS011;9905;52.126;5.596;2022-08-04T05:30:27;9.43;;;6.80;;
19521;SDS011;9905;52.126;5.596;2022-08-04T05:32:56;13.10;;;7.18;;
19521;SDS011;9905;52.126;5.596;2022-08-04T05:35:29;12.57;;;7.22;;
19521;SDS011;9905;52.126;5.596;2022-08-04T05:38:00;7.50;;;6.65;;
19521;SDS011;9905;52.126;5.596;2022-08-04T05:40:28;7.25;;;6.57;;
19521;SDS011;9905;52.126;5.596;2022-08-04T05:42:55;7.43;;;6.68;;
19521;SDS011;9905;52.126;5.596;2022-08-04T05:45:24;12.00;;;6.93;;
19521;SDS011;9905;52.126;5.596;2022-08-04T05:47:52;7.35;;;6.43;;
19521;SDS011;9905;52.126;5.596;2022-08-04T05:50:19;15.23;;;11.55;;
19521;SDS011;9905;52.126;5.596;2022-08-04T05:52:49;29.48;;;19.65;;
19521;SDS011;9905;52.126;5.596;2022-08-04T05:55:16;33.78;;;23.25;;
19521;SDS011;9905;52.126;5.596;2022-08-04T05:57:44;47.15;;;31.33;;
19521;SDS011;9905;52.126;5.596;2022-08-04T06:00:13;34.47;;;23.52;;
19521;SDS011;9905;52.126;5.596;2022-08-04T06:02:43;42.63;;;28.35;;
19521;SDS011;9905;52.126;5.596;2022-08-04T06:05:11;38.33;;;26.20;;
19521;SDS011;9905;52.126;5.596;2022-08-04T06:07:40;31.02;;;20.33;;
19521;SDS011;9905;52.126;5.596;2022-08-04T06:10:08;21.95;;;14.70;;
19521;SDS011;9905;52.126;5.596;2022-08-04T06:12:37;17.73;;;11.10;;
19521;SDS011;9905;52.126;5.596;2022-08-04T06:15:07;9.43;;;8.45;;
19521;SDS011;9905;52.126;5.596;2022-08-04T06:17:38;10.00;;;7.35;;
19521;SDS011;9905;52.126;5.596;2022-08-04T06:20:09;7.75;;;6.97;;
19521;SDS011;9905;52.126;5.596;2022-08-04T06:22:39;9.75;;;7.10;;
19521;SDS011;9905;52.126;5.596;2022-08-04T06:25:09;8.07;;;6.72;;
19521;SDS011;9905;52.126;5.596;2022-08-04T06:27:38;11.68;;;7.50;;
19521;SDS011;9905;52.126;5.596;2022-08-04T06:30:07;9.30;;;7.60;;
19521;SDS011;9905;52.126;5.596;2022-08-04T06:32:38;8.95;;;6.78;;
19521;SDS011;9905;52.126;5.596;2022-08-04T06:35:13;12.25;;;7.25;;
19521;SDS011;9905;52.126;5.596;2022-08-04T06:37:42;9.35;;;6.80;;
19521;SDS011;9905;52.126;5.596;2022-08-04T06:40:12;11.93;;;7.07;;
19521;SDS011;9905;52.126;5.596;2022-08-04T06:42:40;11.20;;;7.25;;
19521;SDS011;9905;52.126;5.596;2022-08-04T06:45:09;15.38;;;7.20;;
19521;SDS011;9905;52.126;5.596;2022-08-04T06:47:37;8.00;;;6.35;;
19521;SDS011;9905;52.126;5.596;2022-08-04T06:50:06;11.63;;;7.13;;
19521;SDS011;9905;52.126;5.596;2022-08-04T06:52:34;12.20;;;7.03;;
19521;SDS011;9905;52.126;5.596;2022-08-04T06:55:02;10.40;;;7.05;;
19521;SDS011;9905;52.126;5.596;2022-08-04T06:57:31;13.82;;;6.88;;
19521;SDS011;9905;52.126;5.596;2022-08-04T07:00:01;16.02;;;7.10;;
19521;SDS011;9905;52.126;5.596;2022-08-04T07:02:32;10.68;;;7.05;;
19521;SDS011;9905;52.126;5.596;2022-08-04T07:05:10;9.80;;;6.45;;
19521;SDS011;9905;52.126;5.596;2022-08-04T07:07:37;7.28;;;6.63;;
19521;SDS011;9905;52.126;5.596;2022-08-04T07:10:05;9.02;;;6.50;;
19521;SDS011;9905;52.126;5.596;2022-08-04T07:12:34;7.03;;;6.03;;
19521;SDS011;9905;52.126;5.596;2022-08-04T07:15:02;7.15;;;6.50;;
19521;SDS011;9905;52.126;5.596;2022-08-04T07:17:29;6.35;;;5.75;;
19521;SDS011;9905;52.126;5.596;2022-08-04T07:19:57;6.45;;;5.90;;
19521;SDS011;9905;52.126;5.596;2022-08-04T07:22:24;6.97;;;6.05;;
19521;SDS011;9905;52.126;5.596;2022-08-04T07:24:53;6.25;;;5.65;;
19521;SDS011;9905;52.126;5.596;2022-08-04T07:27:20;6.28;;;5.65;;
19521;SDS011;9905;52.126;5.596;2022-08-04T07:29:48;6.35;;;5.75;;
19521;SDS011;9905;52.126;5.596;2022-08-04T07:32:15;7.95;;;5.55;;
19521;SDS011;9905;52.126;5.596;2022-08-04T07:34:43;6.18;;;5.78;;
19521;SDS011;9905;52.126;5.596;2022-08-04T07:37:11;6.35;;;5.07;;
19521;SDS011;9905;52.126;5.596;2022-08-04T07:39:39;5.05;;;4.75;;
19521;SDS011;9905;52.126;5.596;2022-08-04T07:42:06;6.20;;;5.68;;
19521;SDS011;9905;52.126;5.596;2022-08-04T07:44:34;6.40;;;5.88;;
19521;SDS011;9905;52.126;5.596;2022-08-04T07:47:03;6.85;;;5.75;;
19521;SDS011;9905;52.126;5.596;2022-08-04T07:49:32;6.80;;;5.55;;
19521;SDS011;9905;52.126;5.596;2022-08-04T07:51:59;6.22;;;5.40;;
19521;SDS011;9905;52.126;5.596;2022-08-04T07:54:26;5.95;;;5.25;;
19521;SDS011;9905;52.126;5.596;2022-08-04T07:56:54;7.25;;;5.00;;
19521;SDS011;9905;52.126;5.596;2022-08-04T07:59:21;5.68;;;5.18;;
19521;SDS011;9905;52.126;5.596;2022-08-04T08:01:48;5.93;;;5.43;;
19521;SDS011;9905;52.126;5.596;2022-08-04T08:04:17;6.80;;;5.13;;
19521;SDS011;9905;52.126;5.596;2022-08-04T08:06:44;6.00;;;4.22;;
19521;SDS011;9905;52.126;5.596;2022-08-04T08:09:12;5.85;;;3.38;;
19521;SDS011;9905;52.126;5.596;2022-08-04T08:11:41;4.85;;;4.20;;
19521;SDS011;9905;52.126;5.596;2022-08-04T08:14:08;5.28;;;3.38;;
19521;SDS011;9905;52.126;5.596;2022-08-04T08:16:35;7.78;;;3.78;;
19521;SDS011;9905;52.126;5.596;2022-08-04T08:19:03;4.07;;;3.42;;
19521;SDS011;9905;52.126;5.596;2022-08-04T08:21:31;3.63;;;2.92;;
19521;SDS011;9905;52.126;5.596;2022-08-04T08:23:58;3.38;;;3.08;;
19521;SDS011;9905;52.126;5.596;2022-08-04T08:26:25;4.30;;;3.30;;
19521;SDS011;9905;52.126;5.596;2022-08-04T08:28:52;5.65;;;3.40;;
19521;SDS011;9905;52.126;5.596;2022-08-04T08:31:19;3.83;;;3.53;;
19521;SDS011;9905;52.126;5.596;2022-08-04T08:33:46;3.40;;;3.10;;
19521;SDS011;9905;52.126;5.596;2022-08-04T08:36:16;4.57;;;3.25;;
19521;SDS011;9905;52.126;5.596;2022-08-04T08:38:51;3.38;;;3.17;;
19521;SDS011;9905;52.126;5.596;2022-08-04T08:47:34;3.08;;;2.88;;
19521;SDS011;9905;52.126;5.596;2022-08-04T08:50:21;6.82;;;3.70;;
19521;SDS011;9905;52.126;5.596;2022-08-04T08:53:11;2.88;;;2.60;;
19521;SDS011;9905;52.126;5.596;2022-08-04T08:55:53;3.65;;;2.88;;
19521;SDS011;9905;52.126;5.596;2022-08-04T08:58:38;5.40;;;3.05;;
19521;SDS011;9905;52.126;5.596;2022-08-04T09:01:16;5.40;;;2.97;;
19521;SDS011;9905;52.126;5.596;2022-08-04T09:04:01;3.58;;;2.63;;
19521;SDS011;9905;52.126;5.596;2022-08-04T09:06:57;4.78;;;2.72;;
19521;SDS011;9905;52.126;5.596;2022-08-04T09:09:52;5.47;;;2.75;;
19521;SDS011;9905;52.126;5.596;2022-08-04T09:12:38;4.03;;;2.60;;
19521;SDS011;9905;52.126;5.596;2022-08-04T09:15:11;2.60;;;2.40;;
19521;SDS011;9905;52.126;5.596;2022-08-04T09:17:42;5.07;;;2.70;;
19521;SDS011;9905;52.126;5.596;2022-08-04T09:20:14;4.30;;;2.83;;
19521;SDS011;9905;52.126;5.596;2022-08-04T09:22:49;5.97;;;2.22;;
19521;SDS011;9905;52.126;5.596;2022-08-04T09:25:19;2.63;;;2.30;;
19521;SDS011;9905;52.126;5.596;2022-08-04T09:27:52;9.90;;;2.75;;
19521;SDS011;9905;52.126;5.596;2022-08-04T09:30:20;4.05;;;2.40;;
19521;SDS011;9905;52.126;5.596;2022-08-04T09:32:56;3.67;;;2.47;;
19521;SDS011;9905;52.126;5.596;2022-08-04T09:35:31;2.40;;;2.20;;
19521;SDS011;9905;52.126;5.596;2022-08-04T09:38:04;3.30;;;2.35;;
19521;SDS011;9905;52.126;5.596;2022-08-04T09:40:44;3.00;;;2.70;;
19521;SDS011;9905;52.126;5.596;2022-08-04T09:43:19;4.55;;;2.45;;
19521;SDS011;9905;52.126;5.596;2022-08-04T09:45:58;4.40;;;2.30;;
19521;SDS011;9905;52.126;5.596;2022-08-04T09:48:33;3.03;;;2.20;;
19521;SDS011;9905;52.126;5.596;2022-08-04T09:51:05;4.63;;;2.20;;
19521;SDS011;9905;52.126;5.596;2022-08-04T09:53:41;3.53;;;1.90;;
19521;SDS011;9905;52.126;5.596;2022-08-04T09:56:19;3.03;;;1.98;;
19521;SDS011;9905;52.126;5.596;2022-08-04T09:58:55;4.18;;;2.53;;
19521;SDS011;9905;52.126;5.596;2022-08-04T10:01:28;4.55;;;1.80;;
19521;SDS011;9905;52.126;5.596;2022-08-04T10:03:58;5.45;;;1.90;;
19521;SDS011;9905;52.126;5.596;2022-08-04T10:06:37;4.63;;;2.15;;
19521;SDS011;9905;52.126;5.596;2022-08-04T10:09:23;2.22;;;1.88;;
19521;SDS011;9905;52.126;5.596;2022-08-04T10:12:04;2.30;;;2.15;;
19521;SDS011;9905;52.126;5.596;2022-08-04T10:14:47;2.20;;;2.00;;
19521;SDS011;9905;52.126;5.596;2022-08-04T10:20:09;3.13;;;1.80;;
19521;SDS011;9905;52.126;5.596;2022-08-04T10:22:55;2.08;;;1.90;;
19521;SDS011;9905;52.126;5.596;2022-08-04T10:25:29;2.47;;;1.63;;
19521;SDS011;9905;52.126;5.596;2022-08-04T10:28:08;1.70;;;1.60;;
19521;SDS011;9905;52.126;5.596;2022-08-04T10:30:40;2.65;;;1.52;;
19521;SDS011;9905;52.126;5.596;2022-08-04T10:33:17;3.63;;;1.90;;
19521;SDS011;9905;52.126;5.596;2022-08-04T10:35:49;1.58;;;1.48;;
19521;SDS011;9905;52.126;5.596;2022-08-04T10:38:22;3.50;;;1.60;;
19521;SDS011;9905;52.126;5.596;2022-08-04T10:40:55;1.88;;;1.67;;
19521;SDS011;9905;52.126;5.596;2022-08-04T10:43:38;2.40;;;1.65;;
19521;SDS011;9905;52.126;5.596;2022-08-04T10:46:13;1.58;;;1.40;;
19521;SDS011;9905;52.126;5.596;2022-08-04T10:48:45;2.25;;;1.52;;
19521;SDS011;9905;52.126;5.596;2022-08-04T10:51:20;1.88;;;1.40;;
19521;SDS011;9905;52.126;5.596;2022-08-04T10:53:55;4.90;;;1.80;;
19521;SDS011;9905;52.126;5.596;2022-08-04T10:56:27;1.85;;;1.55;;
19521;SDS011;9905;52.126;5.596;2022-08-04T10:59:01;2.50;;;1.48;;
19521;SDS011;9905;52.126;5.596;2022-08-04T11:01:30;2.05;;;1.67;;
19521;SDS011;9905;52.126;5.596;2022-08-04T11:04:03;2.13;;;1.60;;
19521;SDS011;9905;52.126;5.596;2022-08-04T11:06:36;2.00;;;1.90;;
19521;SDS011;9905;52.126;5.596;2022-08-04T11:09:04;1.70;;;1.60;;
19521;SDS011;9905;52.126;5.596;2022-08-04T11:11:35;2.33;;;1.88;;
19521;SDS011;9905;52.126;5.596;2022-08-04T11:14:07;4.43;;;1.80;;
19521;SDS011;9905;52.126;5.596;2022-08-04T11:16:40;2.20;;;2.10;;
19521;SDS011;9905;52.126;5.596;2022-08-04T11:19:13;2.13;;;2.00;;
19521;SDS011;9905;52.126;5.596;2022-08-04T11:21:51;2.45;;;2.10;;
19521;SDS011;9905;52.126;5.596;2022-08-04T11:24:22;3.40;;;2.67;;
19521;SDS011;9905;52.126;5.596;2022-08-04T11:26:57;2.10;;;2.00;;
19521;SDS011;9905;52.126;5.596;2022-08-04T11:29:28;2.03;;;1.88;;
19521;SDS011;9905;52.126;5.596;2022-08-04T11:32:02;2.47;;;2.30;;
19521;SDS011;9905;52.126;5.596;2022-08-04T11:34:33;2.40;;;2.20;;
19521;SDS011;9905;52.126;5.596;2022-08-04T11:37:02;2.40;;;2.20;;
19521;SDS011;9905;52.126;5.596;2022-08-04T11:39:35;6.10;;;2.70;;
19521;SDS011;9905;52.126;5.596;2022-08-04T11:42:09;2.60;;;2.40;;
19521;SDS011;9905;52.126;5.596;2022-08-04T11:44:46;4.47;;;2.63;;
19521;SDS011;9905;52.126;5.596;2022-08-04T11:47:19;2.60;;;2.28;;
19521;SDS011;9905;52.126;5.596;2022-08-04T11:49:55;4.30;;;2.20;;
19521;SDS011;9905;52.126;5.596;2022-08-04T11:52:27;2.13;;;2.03;;
19521;SDS011;9905;52.126;5.596;2022-08-04T11:54:56;2.17;;;2.08;;
19521;SDS011;9905;52.126;5.596;2022-08-04T11:57:24;3.92;;;2.55;;
19521;SDS011;9905;52.126;5.596;2022-08-04T11:59:52;2.17;;;1.98;;
19521;SDS011;9905;52.126;5.596;2022-08-04T12:02:28;4.20;;;2.50;;
19521;SDS011;9905;52.126;5.596;2022-08-04T12:05:06;2.58;;;2.38;;
19521;SDS011;9905;52.126;5.596;2022-08-04T12:07:42;2.42;;;2.22;;
19521;SDS011;9905;52.126;5.596;2022-08-04T12:10:23;2.72;;;2.53;;
19521;SDS011;9905;52.126;5.596;2022-08-04T12:13:05;2.17;;;2.08;;
19521;SDS011;9905;52.126;5.596;2022-08-04T12:15:55;1.98;;;1.88;;
19521;SDS011;9905;52.126;5.596;2022-08-04T12:18:29;2.35;;;2.15;;
19521;SDS011;9905;52.126;5.596;2022-08-04T12:21:02;2.10;;;1.90;;
19521;SDS011;9905;52.126;5.596;2022-08-04T12:23:35;4.05;;;2.42;;
19521;SDS011;9905;52.126;5.596;2022-08-04T12:26:04;3.17;;;1.75;;
19521;SDS011;9905;52.126;5.596;2022-08-04T12:28:33;2.22;;;2.03;;
19521;SDS011;9905;52.126;5.596;2022-08-04T12:31:04;3.78;;;1.92;;
19521;SDS011;9905;52.126;5.596;2022-08-04T12:33:39;2.10;;;2.00;;
19521;SDS011;9905;52.126;5.596;2022-08-04T12:36:16;1.98;;;1.88;;
19521;SDS011;9905;52.126;5.596;2022-08-04T12:38:47;4.88;;;2.00;;
19521;SDS011;9905;52.126;5.596;2022-08-04T12:41:19;6.45;;;1.95;;
19521;SDS011;9905;52.126;5.596;2022-08-04T12:43:49;2.17;;;1.83;;
19521;SDS011;9905;52.126;5.596;2022-08-04T12:46:19;1.88;;;1.75;;
19521;SDS011;9905;52.126;5.596;2022-08-04T12:48:50;2.70;;;1.63;;
19521;SDS011;9905;52.126;5.596;2022-08-04T12:51:18;2.92;;;2.08;;
19521;SDS011;9905;52.126;5.596;2022-08-04T12:53:47;2.25;;;2.15;;
19521;SDS011;9905;52.126;5.596;2022-08-04T12:56:16;2.78;;;1.58;;
19521;SDS011;9905;52.126;5.596;2022-08-04T12:58:51;1.90;;;1.70;;
19521;SDS011;9905;52.126;5.596;2022-08-04T13:01:19;1.95;;;1.70;;
19521;SDS011;9905;52.126;5.596;2022-08-04T13:03:48;2.00;;;1.90;;
19521;SDS011;9905;52.126;5.596;2022-08-04T13:06:23;2.42;;;1.67;;
19521;SDS011;9905;52.126;5.596;2022-08-04T13:08:51;1.88;;;1.77;;
19521;SDS011;9905;52.126;5.596;2022-08-04T13:11:19;3.08;;;1.67;;
19521;SDS011;9905;52.126;5.596;2022-08-04T13:13:47;1.58;;;1.35;;
19521;SDS011;9905;52.126;5.596;2022-08-04T13:16:18;2.50;;;1.58;;
19521;SDS011;9905;52.126;5.596;2022-08-04T13:18:56;2.00;;;1.90;;
19521;SDS011;9905;52.126;5.596;2022-08-04T13:21:24;3.97;;;1.92;;
19521;SDS011;9905;52.126;5.596;2022-08-04T13:23:55;2.83;;;1.45;;
19521;SDS011;9905;52.126;5.596;2022-08-04T13:26:23;1.90;;;1.55;;
19521;SDS011;9905;52.126;5.596;2022-08-04T13:28:51;1.80;;;1.65;;
19521;SDS011;9905;52.126;5.596;2022-08-04T13:31:20;1.92;;;1.58;;
19521;SDS011;9905;52.126;5.596;2022-08-04T13:33:49;3.22;;;1.60;;
19521;SDS011;9905;52.126;5.596;2022-08-04T13:36:23;2.65;;;1.70;;
19521;SDS011;9905;52.126;5.596;2022-08-04T13:38:52;2.08;;;1.52;;
19521;SDS011;9905;52.126;5.596;2022-08-04T13:41:20;1.70;;;1.60;;
19521;SDS011;9905;52.126;5.596;2022-08-04T13:43:49;2.03;;;1.80;;
19521;SDS011;9905;52.126;5.596;2022-08-04T13:46:21;1.45;;;1.40;;
19521;SDS011;9905;52.126;5.596;2022-08-04T13:48:50;2.17;;;1.70;;
19521;SDS011;9905;52.126;5.596;2022-08-04T13:51:18;2.15;;;1.52;;
19521;SDS011;9905;52.126;5.596;2022-08-04T13:53:53;2.70;;;1.45;;
19521;SDS011;9905;52.126;5.596;2022-08-04T13:56:22;1.85;;;1.40;;
19521;SDS011;9905;52.126;5.596;2022-08-04T13:58:55;1.80;;;1.40;;
19521;SDS011;9905;52.126;5.596;2022-08-04T14:01:25;1.50;;;1.40;;
19521;SDS011;9905;52.126;5.596;2022-08-04T14:03:56;2.25;;;1.80;;
19521;SDS011;9905;52.126;5.596;2022-08-04T14:06:29;2.00;;;1.90;;
19521;SDS011;9905;52.126;5.596;2022-08-04T14:08:59;1.98;;;1.75;;
19521;SDS011;9905;52.126;5.596;2022-08-04T14:11:35;2.22;;;1.95;;
19521;SDS011;9905;52.126;5.596;2022-08-04T14:14:11;1.90;;;1.80;;
19521;SDS011;9905;52.126;5.596;2022-08-04T14:16:43;2.20;;;1.70;;
19521;SDS011;9905;52.126;5.596;2022-08-04T14:19:20;3.65;;;1.73;;
19521;SDS011;9905;52.126;5.596;2022-08-04T14:21:48;2.83;;;1.92;;
19521;SDS011;9905;52.126;5.596;2022-08-04T14:24:21;1.90;;;1.70;;
19521;SDS011;9905;52.126;5.596;2022-08-04T14:26:48;3.17;;;1.80;;
19521;SDS011;9905;52.126;5.596;2022-08-04T14:29:16;1.70;;;1.60;;
19521;SDS011;9905;52.126;5.596;2022-08-04T14:31:45;3.08;;;1.80;;
19521;SDS011;9905;52.126;5.596;2022-08-04T14:34:23;1.45;;;1.35;;
19521;SDS011;9905;52.126;5.596;2022-08-04T14:36:52;2.40;;;1.80;;
19521;SDS011;9905;52.126;5.596;2022-08-04T14:39:23;3.60;;;1.80;;
19521;SDS011;9905;52.126;5.596;2022-08-04T14:42:03;1.52;;;1.42;;
19521;SDS011;9905;52.126;5.596;2022-08-04T14:44:30;2.60;;;1.60;;
19521;SDS011;9905;52.126;5.596;2022-08-04T14:46:56;1.67;;;1.58;;
19521;SDS011;9905;52.126;5.596;2022-08-04T14:49:24;1.77;;;1.20;;
19521;SDS011;9905;52.126;5.596;2022-08-04T14:51:53;1.50;;;1.40;;
19521;SDS011;9905;52.126;5.596;2022-08-04T14:54:26;2.13;;;1.77;;
19521;SDS011;9905;52.126;5.596;2022-08-04T14:56:54;1.75;;;1.65;;
19521;SDS011;9905;52.126;5.596;2022-08-04T14:59:23;3.75;;;1.92;;
19521;SDS011;9905;52.126;5.596;2022-08-04T15:01:51;2.50;;;1.45;;
19521;SDS011;9905;52.126;5.596;2022-08-04T15:04:20;2.22;;;1.83;;
19521;SDS011;9905;52.126;5.596;2022-08-04T15:06:49;1.85;;;1.75;;
19521;SDS011;9905;52.126;5.596;2022-08-04T15:09:18;1.50;;;1.38;;
19521;SDS011;9905;52.126;5.596;2022-08-04T15:11:46;1.70;;;1.60;;
19521;SDS011;9905;52.126;5.596;2022-08-04T15:14:12;2.08;;;1.88;;
19521;SDS011;9905;52.126;5.596;2022-08-04T15:16:40;2.33;;;1.60;;
19521;SDS011;9905;52.126;5.596;2022-08-04T15:19:08;2.40;;;1.27;;
19521;SDS011;9905;52.126;5.596;2022-08-04T15:21:35;2.05;;;1.50;;
19521;SDS011;9905;52.126;5.596;2022-08-04T15:24:02;1.63;;;1.52;;
19521;SDS011;9905;52.126;5.596;2022-08-04T15:26:31;3.95;;;1.60;;
19521;SDS011;9905;52.126;5.596;2022-08-04T15:29:04;1.60;;;1.23;;
19521;SDS011;9905;52.126;5.596;2022-08-04T15:31:36;2.70;;;1.50;;
19521;SDS011;9905;52.126;5.596;2022-08-04T15:34:05;1.67;;;1.38;;
19521;SDS011;9905;52.126;5.596;2022-08-04T15:36:34;1.45;;;1.23;;
19521;SDS011;9905;52.126;5.596;2022-08-04T15:39:05;1.17;;;1.10;;
19521;SDS011;9905;52.126;5.596;2022-08-04T15:41:40;1.52;;;1.42;;
19521;SDS011;9905;52.126;5.596;2022-08-04T15:44:22;2.70;;;1.35;;
19521;SDS011;9905;52.126;5.596;2022-08-04T15:47:14;2.53;;;1.35;;
19521;SDS011;9905;52.126;5.596;2022-08-04T15:49:41;3.63;;;1.70;;
19521;SDS011;9905;52.126;5.596;2022-08-04T15:52:10;1.58;;;1.40;;
19521;SDS011;9905;52.126;5.596;2022-08-04T15:54:39;1.10;;;1.10;;
19521;SDS011;9905;52.126;5.596;2022-08-04T15:57:08;1.50;;;1.40;;
19521;SDS011;9905;52.126;5.596;2022-08-04T15:59:55;1.40;;;1.33;;
19521;SDS011;9905;52.126;5.596;2022-08-04T16:02:37;1.60;;;1.50;;
19521;SDS011;9905;52.126;5.596;2022-08-04T16:08:07;3.38;;;1.60;;
19521;SDS011;9905;52.126;5.596;2022-08-04T16:10:36;2.63;;;1.42;;
19521;SDS011;9905;52.126;5.596;2022-08-04T16:13:06;1.15;;;1.10;;
19521;SDS011;9905;52.126;5.596;2022-08-04T16:15:40;1.40;;;1.30;;
19521;SDS011;9905;52.126;5.596;2022-08-04T16:18:09;1.70;;;1.60;;
19521;SDS011;9905;52.126;5.596;2022-08-04T16:20:37;1.63;;;1.52;;
19521;SDS011;9905;52.126;5.596;2022-08-04T16:23:11;1.60;;;1.20;;